sensor_id;sensor_type;location;lat;lon;timestamp;temperature;humidity
43561;DHT22;32305;46.410;17.394;2022-09-13T00:01:30;24.70;48.70
43561;DHT22;32305;46.410;17.394;2022-09-13T00:03:57;24.70;48.70
43561;DHT22;32305;46.410;17.394;2022-09-13T00:06:24;24.60;48.60
43561;DHT22;32305;46.410;17.394;2022-09-13T00:08:51;24.60;48.60
43561;DHT22;32305;46.410;17.394;2022-09-13T00:11:23;24.60;48.60
43561;DHT22;32305;46.410;17.394;2022-09-13T00:13:51;24.60;48.60
43561;DHT22;32305;46.410;17.394;2022-09-13T00:16:19;24.60;48.60
43561;DHT22;32305;46.410;17.394;2022-09-13T00:18:47;24.60;48.60
43561;DHT22;32305;46.410;17.394;2022-09-13T00:21:17;24.60;48.60
43561;DHT22;32305;46.410;17.394;2022-09-13T00:23:47;24.60;48.60
43561;DHT22;32305;46.410;17.394;2022-09-13T00:26:17;24.60;48.70
43561;DHT22;32305;46.410;17.394;2022-09-13T00:28:44;24.60;48.70
43561;DHT22;32305;46.410;17.394;2022-09-13T00:31:12;24.60;48.70
43561;DHT22;32305;46.410;17.394;2022-09-13T00:33:39;24.60;48.70
43561;DHT22;32305;46.410;17.394;2022-09-13T00:36:08;24.60;48.70
43561;DHT22;32305;46.410;17.394;2022-09-13T00:38:39;24.50;48.70
43561;DHT22;32305;46.410;17.394;2022-09-13T00:41:10;24.60;48.80
43561;DHT22;32305;46.410;17.394;2022-09-13T00:43:48;24.60;48.70
43561;DHT22;32305;46.410;17.394;2022-09-13T00:46:40;24.60;48.70
43561;DHT22;32305;46.410;17.394;2022-09-13T00:49:17;24.50;48.70
43561;DHT22;32305;46.410;17.394;2022-09-13T00:51:50;24.60;48.80
43561;DHT22;32305;46.410;17.394;2022-09-13T00:54:20;24.60;48.80
43561;DHT22;32305;46.410;17.394;2022-09-13T00:56:53;24.60;48.80
43561;DHT22;32305;46.410;17.394;2022-09-13T00:59:25;24.60;48.80
43561;DHT22;32305;46.410;17.394;2022-09-13T01:01:55;24.50;48.70
43561;DHT22;32305;46.410;17.394;2022-09-13T01:04:28;24.50;48.70
43561;DHT22;32305;46.410;17.394;2022-09-13T01:07:00;24.60;48.80
43561;DHT22;32305;46.410;17.394;2022-09-13T01:09:29;24.50;48.70
43561;DHT22;32305;46.410;17.394;2022-09-13T01:12:04;24.50;48.70
43561;DHT22;32305;46.410;17.394;2022-09-13T01:14:34;24.50;48.70
43561;DHT22;32305;46.410;17.394;2022-09-13T01:17:02;24.50;48.70
43561;DHT22;32305;46.410;17.394;2022-09-13T01:19:29;24.50;48.80
43561;DHT22;32305;46.410;17.394;2022-09-13T01:22:19;24.50;48.70
43561;DHT22;32305;46.410;17.394;2022-09-13T01:25:15;24.50;48.80
43561;DHT22;32305;46.410;17.394;2022-09-13T01:28:05;24.50;48.80
43561;DHT22;32305;46.410;17.394;2022-09-13T01:30:44;24.50;48.70
43561;DHT22;32305;46.410;17.394;2022-09-13T01:33:32;24.50;48.70
43561;DHT22;32305;46.410;17.394;2022-09-13T01:36:15;24.50;48.70
43561;DHT22;32305;46.410;17.394;2022-09-13T01:39:03;24.50;48.70
43561;DHT22;32305;46.410;17.394;2022-09-13T01:42:14;24.60;48.80
43561;DHT22;32305;46.410;17.394;2022-09-13T01:47:37;24.50;48.70
43561;DHT22;32305;46.410;17.394;2022-09-13T01:50:28;24.50;48.70
43561;DHT22;32305;46.410;17.394;2022-09-13T01:53:30;24.50;48.70
43561;DHT22;32305;46.410;17.394;2022-09-13T01:56:21;24.50;48.60
43561;DHT22;32305;46.410;17.394;2022-09-13T01:58:55;24.50;48.60
43561;DHT22;32305;46.410;17.394;2022-09-13T02:01:40;24.60;48.70
43561;DHT22;32305;46.410;17.394;2022-09-13T02:04:12;24.50;49.10
43561;DHT22;32305;46.410;17.394;2022-09-13T02:07:02;24.60;48.60
43561;DHT22;32305;46.410;17.394;2022-09-13T02:09:34;24.60;48.60
43561;DHT22;32305;46.410;17.394;2022-09-13T02:12:21;24.50;48.60
43561;DHT22;32305;46.410;17.394;2022-09-13T02:14:57;24.50;48.60
43561;DHT22;32305;46.410;17.394;2022-09-13T02:17:34;24.50;48.60
43561;DHT22;32305;46.410;17.394;2022-09-13T02:20:09;24.50;48.60
43561;DHT22;32305;46.410;17.394;2022-09-13T02:22:43;24.50;48.60
43561;DHT22;32305;46.410;17.394;2022-09-13T02:25:15;24.50;48.60
43561;DHT22;32305;46.410;17.394;2022-09-13T02:27:46;24.50;48.60
43561;DHT22;32305;46.410;17.394;2022-09-13T02:30:15;24.50;48.60
43561;DHT22;32305;46.410;17.394;2022-09-13T02:32:58;24.50;48.60
43561;DHT22;32305;46.410;17.394;2022-09-13T02:35:34;24.50;48.70
43561;DHT22;32305;46.410;17.394;2022-09-13T02:38:11;24.50;48.70
43561;DHT22;32305;46.410;17.394;2022-09-13T02:40:48;24.50;48.70
43561;DHT22;32305;46.410;17.394;2022-09-13T02:43:24;24.50;48.70
43561;DHT22;32305;46.410;17.394;2022-09-13T02:46:05;24.50;48.70
43561;DHT22;32305;46.410;17.394;2022-09-13T02:48:48;24.50;48.70
43561;DHT22;32305;46.410;17.394;2022-09-13T02:51:43;24.50;49.20
43561;DHT22;32305;46.410;17.394;2022-09-13T02:54:40;24.50;48.70
43561;DHT22;32305;46.410;17.394;2022-09-13T03:00:01;24.50;48.70
43561;DHT22;32305;46.410;17.394;2022-09-13T03:02:31;24.50;48.70
43561;DHT22;32305;46.410;17.394;2022-09-13T03:04:59;24.50;48.70
43561;DHT22;32305;46.410;17.394;2022-09-13T03:07:27;24.50;48.70
43561;DHT22;32305;46.410;17.394;2022-09-13T03:09:58;24.50;48.70
43561;DHT22;32305;46.410;17.394;2022-09-13T03:12:52;24.50;48.70
43561;DHT22;32305;46.410;17.394;2022-09-13T03:15:49;24.50;49.30
43561;DHT22;32305;46.410;17.394;2022-09-13T03:18:51;24.50;48.70
43561;DHT22;32305;46.410;17.394;2022-09-13T03:24:23;24.40;48.70
43561;DHT22;32305;46.410;17.394;2022-09-13T03:27:24;24.50;48.70
43561;DHT22;32305;46.410;17.394;2022-09-13T03:30:04;24.50;48.70
43561;DHT22;32305;46.410;17.394;2022-09-13T03:35:31;24.50;48.70
43561;DHT22;32305;46.410;17.394;2022-09-13T03:38:07;24.40;48.70
43561;DHT22;32305;46.410;17.394;2022-09-13T03:40:42;24.40;48.70
43561;DHT22;32305;46.410;17.394;2022-09-13T03:43:19;24.50;49.30
43561;DHT22;32305;46.410;17.394;2022-09-13T03:45:51;24.50;48.70
43561;DHT22;32305;46.410;17.394;2022-09-13T03:48:21;24.50;48.70
43561;DHT22;32305;46.410;17.394;2022-09-13T03:50:49;24.50;48.70
43561;DHT22;32305;46.410;17.394;2022-09-13T03:53:23;24.50;48.60
43561;DHT22;32305;46.410;17.394;2022-09-13T03:55:51;24.50;48.60
43561;DHT22;32305;46.410;17.394;2022-09-13T03:58:20;24.40;48.60
43561;DHT22;32305;46.410;17.394;2022-09-13T04:00:47;24.50;48.60
43561;DHT22;32305;46.410;17.394;2022-09-13T04:03:14;24.40;48.50
43561;DHT22;32305;46.410;17.394;2022-09-13T04:05:42;24.50;48.50
43561;DHT22;32305;46.410;17.394;2022-09-13T04:08:09;24.50;48.50
43561;DHT22;32305;46.410;17.394;2022-09-13T04:10:36;24.40;48.50
43561;DHT22;32305;46.410;17.394;2022-09-13T04:13:03;24.40;48.50
43561;DHT22;32305;46.410;17.394;2022-09-13T04:15:30;24.50;48.50
43561;DHT22;32305;46.410;17.394;2022-09-13T04:17:58;24.40;48.50
43561;DHT22;32305;46.410;17.394;2022-09-13T04:20:26;24.50;48.50
43561;DHT22;32305;46.410;17.394;2022-09-13T04:22:56;24.40;48.50
43561;DHT22;32305;46.410;17.394;2022-09-13T04:25:23;24.40;48.50
43561;DHT22;32305;46.410;17.394;2022-09-13T04:27:54;24.50;48.50
43561;DHT22;32305;46.410;17.394;2022-09-13T04:30:21;24.50;48.50
43561;DHT22;32305;46.410;17.394;2022-09-13T04:32:49;24.50;48.60
43561;DHT22;32305;46.410;17.394;2022-09-13T04:35:16;24.40;48.50
43561;DHT22;32305;46.410;17.394;2022-09-13T04:37:45;24.40;48.50
43561;DHT22;32305;46.410;17.394;2022-09-13T04:40:12;24.50;48.50
43561;DHT22;32305;46.410;17.394;2022-09-13T04:42:42;24.40;48.50
43561;DHT22;32305;46.410;17.394;2022-09-13T04:45:09;24.40;48.50
43561;DHT22;32305;46.410;17.394;2022-09-13T04:47:36;24.40;48.50
43561;DHT22;32305;46.410;17.394;2022-09-13T04:50:04;24.40;48.40
43561;DHT22;32305;46.410;17.394;2022-09-13T04:52:32;24.40;48.40
43561;DHT22;32305;46.410;17.394;2022-09-13T04:55:00;24.40;48.50
43561;DHT22;32305;46.410;17.394;2022-09-13T04:57:28;24.50;48.50
43561;DHT22;32305;46.410;17.394;2022-09-13T04:59:55;24.40;48.40
43561;DHT22;32305;46.410;17.394;2022-09-13T05:02:22;24.40;48.40
43561;DHT22;32305;46.410;17.394;2022-09-13T05:04:49;24.50;48.50
43561;DHT22;32305;46.410;17.394;2022-09-13T05:07:16;24.50;48.40
43561;DHT22;32305;46.410;17.394;2022-09-13T05:09:43;24.50;48.40
43561;DHT22;32305;46.410;17.394;2022-09-13T05:12:10;24.50;48.30
43561;DHT22;32305;46.410;17.394;2022-09-13T05:14:38;24.50;48.30
43561;DHT22;32305;46.410;17.394;2022-09-13T05:17:05;24.40;48.10
43561;DHT22;32305;46.410;17.394;2022-09-13T05:19:32;24.30;48.20
43561;DHT22;32305;46.410;17.394;2022-09-13T05:22:00;24.10;48.40
43561;DHT22;32305;46.410;17.394;2022-09-13T05:24:28;23.90;49.30
43561;DHT22;32305;46.410;17.394;2022-09-13T05:26:55;23.70;49.40
43561;DHT22;32305;46.410;17.394;2022-09-13T05:29:22;23.60;50.20
43561;DHT22;32305;46.410;17.394;2022-09-13T05:31:53;23.60;50.50
43561;DHT22;32305;46.410;17.394;2022-09-13T05:34:20;23.60;51.10
43561;DHT22;32305;46.410;17.394;2022-09-13T05:36:47;23.70;50.60
43561;DHT22;32305;46.410;17.394;2022-09-13T05:39:20;23.80;50.50
43561;DHT22;32305;46.410;17.394;2022-09-13T05:42:08;23.90;50.20
43561;DHT22;32305;46.410;17.394;2022-09-13T05:44:35;24.00;49.90
43561;DHT22;32305;46.410;17.394;2022-09-13T05:47:03;24.10;49.50
43561;DHT22;32305;46.410;17.394;2022-09-13T05:49:31;24.20;49.20
43561;DHT22;32305;46.410;17.394;2022-09-13T05:51:58;24.20;48.80
43561;DHT22;32305;46.410;17.394;2022-09-13T05:54:25;24.30;48.50
43561;DHT22;32305;46.410;17.394;2022-09-13T05:56:53;24.30;48.30
43561;DHT22;32305;46.410;17.394;2022-09-13T05:59:23;24.40;48.10
43561;DHT22;32305;46.410;17.394;2022-09-13T06:01:51;24.40;47.90
43561;DHT22;32305;46.410;17.394;2022-09-13T06:04:18;24.50;47.80
43561;DHT22;32305;46.410;17.394;2022-09-13T06:06:46;24.50;47.60
43561;DHT22;32305;46.410;17.394;2022-09-13T06:09:13;24.50;47.50
43561;DHT22;32305;46.410;17.394;2022-09-13T06:11:40;24.50;47.60
43561;DHT22;32305;46.410;17.394;2022-09-13T06:14:08;24.60;47.60
43561;DHT22;32305;46.410;17.394;2022-09-13T06:16:35;24.60;48.00
43561;DHT22;32305;46.410;17.394;2022-09-13T06:19:02;24.60;48.20
43561;DHT22;32305;46.410;17.394;2022-09-13T06:21:30;24.70;48.30
43561;DHT22;32305;46.410;17.394;2022-09-13T06:23:58;24.70;48.20
43561;DHT22;32305;46.410;17.394;2022-09-13T06:26:26;24.80;48.10
43561;DHT22;32305;46.410;17.394;2022-09-13T06:28:55;24.80;47.90
43561;DHT22;32305;46.410;17.394;2022-09-13T06:31:25;24.90;47.80
43561;DHT22;32305;46.410;17.394;2022-09-13T06:33:57;24.90;47.70
43561;DHT22;32305;46.410;17.394;2022-09-13T06:36:25;25.00;47.70
43561;DHT22;32305;46.410;17.394;2022-09-13T06:38:52;25.10;47.80
43561;DHT22;32305;46.410;17.394;2022-09-13T06:41:21;25.10;47.70
43561;DHT22;32305;46.410;17.394;2022-09-13T06:43:53;25.10;47.70
43561;DHT22;32305;46.410;17.394;2022-09-13T06:46:22;25.20;47.70
43561;DHT22;32305;46.410;17.394;2022-09-13T06:48:51;25.20;47.40
43561;DHT22;32305;46.410;17.394;2022-09-13T06:51:21;25.30;47.30
43561;DHT22;32305;46.410;17.394;2022-09-13T06:53:49;25.30;47.30
43561;DHT22;32305;46.410;17.394;2022-09-13T06:56:27;25.40;47.30
43561;DHT22;32305;46.410;17.394;2022-09-13T06:58:56;25.40;47.20
43561;DHT22;32305;46.410;17.394;2022-09-13T07:01:26;25.50;47.20
43561;DHT22;32305;46.410;17.394;2022-09-13T07:03:59;25.50;47.10
43561;DHT22;32305;46.410;17.394;2022-09-13T07:06:29;25.60;46.90
43561;DHT22;32305;46.410;17.394;2022-09-13T07:08:58;25.60;46.80
43561;DHT22;32305;46.410;17.394;2022-09-13T07:11:29;25.70;46.70
43561;DHT22;32305;46.410;17.394;2022-09-13T07:13:57;25.70;46.60
43561;DHT22;32305;46.410;17.394;2022-09-13T07:16:26;25.80;46.50
43561;DHT22;32305;46.410;17.394;2022-09-13T07:18:55;25.80;46.30
43561;DHT22;32305;46.410;17.394;2022-09-13T07:21:23;25.90;46.20
43561;DHT22;32305;46.410;17.394;2022-09-13T07:23:52;25.90;46.00
43561;DHT22;32305;46.410;17.394;2022-09-13T07:26:20;25.90;45.90
43561;DHT22;32305;46.410;17.394;2022-09-13T07:28:50;25.90;45.70
43561;DHT22;32305;46.410;17.394;2022-09-13T07:31:21;26.00;45.60
43561;DHT22;32305;46.410;17.394;2022-09-13T07:33:57;26.00;45.50
43561;DHT22;32305;46.410;17.394;2022-09-13T07:36:25;26.10;45.30
43561;DHT22;32305;46.410;17.394;2022-09-13T07:38:53;26.10;45.20
43561;DHT22;32305;46.410;17.394;2022-09-13T07:41:22;26.10;45.40
43561;DHT22;32305;46.410;17.394;2022-09-13T07:43:50;26.10;45.40
43561;DHT22;32305;46.410;17.394;2022-09-13T07:46:22;26.10;45.30
43561;DHT22;32305;46.410;17.394;2022-09-13T07:48:55;26.20;45.30
43561;DHT22;32305;46.410;17.394;2022-09-13T07:54:18;26.20;44.80
43561;DHT22;32305;46.410;17.394;2022-09-13T07:56:45;26.20;44.80
43561;DHT22;32305;46.410;17.394;2022-09-13T07:59:15;26.30;44.80
43561;DHT22;32305;46.410;17.394;2022-09-13T08:01:45;26.30;44.70
43561;DHT22;32305;46.410;17.394;2022-09-13T08:04:15;26.30;44.60
43561;DHT22;32305;46.410;17.394;2022-09-13T08:06:46;26.30;44.50
43561;DHT22;32305;46.410;17.394;2022-09-13T08:09:14;26.30;44.40
43561;DHT22;32305;46.410;17.394;2022-09-13T08:11:49;26.30;44.40
43561;DHT22;32305;46.410;17.394;2022-09-13T08:14:20;26.30;44.30
43561;DHT22;32305;46.410;17.394;2022-09-13T08:16:47;26.30;44.40
43561;DHT22;32305;46.410;17.394;2022-09-13T08:27:11;26.40;44.50
43561;DHT22;32305;46.410;17.394;2022-09-13T08:29:44;26.50;44.50
43561;DHT22;32305;46.410;17.394;2022-09-13T08:32:11;26.50;44.20
43561;DHT22;32305;46.410;17.394;2022-09-13T08:34:38;26.50;44.10
43561;DHT22;32305;46.410;17.394;2022-09-13T08:40:50;26.50;44.00
43561;DHT22;32305;46.410;17.394;2022-09-13T08:43:47;26.60;44.10
43561;DHT22;32305;46.410;17.394;2022-09-13T08:46:43;26.60;44.00
43561;DHT22;32305;46.410;17.394;2022-09-13T08:53:44;26.70;43.90
43561;DHT22;32305;46.410;17.394;2022-09-13T08:59:25;26.80;43.60
43561;DHT22;32305;46.410;17.394;2022-09-13T09:17:54;26.90;42.90
43561;DHT22;32305;46.410;17.394;2022-09-13T09:20:36;26.90;43.00
43561;DHT22;32305;46.410;17.394;2022-09-13T09:23:13;26.80;41.10
43561;DHT22;32305;46.410;17.394;2022-09-13T09:25:49;26.20;39.10
43561;DHT22;32305;46.410;17.394;2022-09-13T09:28:18;25.40;41.10
43561;DHT22;32305;46.410;17.394;2022-09-13T09:30:58;25.10;44.60
43561;DHT22;32305;46.410;17.394;2022-09-13T09:34:09;25.10;45.30
43561;DHT22;32305;46.410;17.394;2022-09-13T09:39:53;25.50;45.20
43561;DHT22;32305;46.410;17.394;2022-09-13T09:42:24;25.70;45.10
43561;DHT22;32305;46.410;17.394;2022-09-13T09:45:32;25.90;45.00
43561;DHT22;32305;46.410;17.394;2022-09-13T09:50:49;26.20;44.50
43561;DHT22;32305;46.410;17.394;2022-09-13T09:53:28;26.30;44.40
43561;DHT22;32305;46.410;17.394;2022-09-13T09:56:21;26.40;44.50
43561;DHT22;32305;46.410;17.394;2022-09-13T10:02:44;26.70;44.10
43561;DHT22;32305;46.410;17.394;2022-09-13T10:05:17;26.80;43.60
43561;DHT22;32305;46.410;17.394;2022-09-13T10:07:58;26.80;43.30
43561;DHT22;32305;46.410;17.394;2022-09-13T10:10:39;26.90;43.10
43561;DHT22;32305;46.410;17.394;2022-09-13T10:24:21;27.00;42.00
43561;DHT22;32305;46.410;17.394;2022-09-13T10:26:49;27.00;42.00
43561;DHT22;32305;46.410;17.394;2022-09-13T10:29:17;27.00;42.00
43561;DHT22;32305;46.410;17.394;2022-09-13T10:31:46;27.00;41.90
43561;DHT22;32305;46.410;17.394;2022-09-13T10:34:34;27.00;41.90
43561;DHT22;32305;46.410;17.394;2022-09-13T10:37:32;27.00;42.00
43561;DHT22;32305;46.410;17.394;2022-09-13T10:40:28;27.00;41.90
43561;DHT22;32305;46.410;17.394;2022-09-13T10:43:01;27.00;41.90
43561;DHT22;32305;46.410;17.394;2022-09-13T10:54:18;27.10;43.80
43561;DHT22;32305;46.410;17.394;2022-09-13T10:56:46;26.90;40.90
43561;DHT22;32305;46.410;17.394;2022-09-13T10:59:26;26.20;38.80
43561;DHT22;32305;46.410;17.394;2022-09-13T11:05:41;24.30;41.60
43561;DHT22;32305;46.410;17.394;2022-09-13T11:09:13;23.50;43.40
43561;DHT22;32305;46.410;17.394;2022-09-13T11:11:51;22.70;44.90
43561;DHT22;32305;46.410;17.394;2022-09-13T11:18:14;22.10;46.90
43561;DHT22;32305;46.410;17.394;2022-09-13T11:20:44;21.70;47.70
43561;DHT22;32305;46.410;17.394;2022-09-13T11:23:40;21.40;48.40
43561;DHT22;32305;46.410;17.394;2022-09-13T11:26:42;21.20;49.10
43561;DHT22;32305;46.410;17.394;2022-09-13T11:29:36;21.10;49.80
43561;DHT22;32305;46.410;17.394;2022-09-13T11:32:34;20.90;50.50
43561;DHT22;32305;46.410;17.394;2022-09-13T11:38:55;20.70;51.10
43561;DHT22;32305;46.410;17.394;2022-09-13T11:41:43;20.60;51.80
43561;DHT22;32305;46.410;17.394;2022-09-13T11:44:34;20.60;51.50
43561;DHT22;32305;46.410;17.394;2022-09-13T11:56:28;20.80;52.90
43561;DHT22;32305;46.410;17.394;2022-09-13T12:02:22;20.90;53.50
43561;DHT22;32305;46.410;17.394;2022-09-13T12:05:04;21.00;53.40
43561;DHT22;32305;46.410;17.394;2022-09-13T12:08:00;21.10;53.70
43561;DHT22;32305;46.410;17.394;2022-09-13T12:10:55;21.10;53.70
43561;DHT22;32305;46.410;17.394;2022-09-13T12:13:52;21.10;53.50
43561;DHT22;32305;46.410;17.394;2022-09-13T12:16:31;21.10;53.40
43561;DHT22;32305;46.410;17.394;2022-09-13T12:19:15;21.20;53.60
43561;DHT22;32305;46.410;17.394;2022-09-13T12:21:46;21.20;53.80
43561;DHT22;32305;46.410;17.394;2022-09-13T12:27:27;21.30;53.80
43561;DHT22;32305;46.410;17.394;2022-09-13T12:30:16;21.30;53.70
43561;DHT22;32305;46.410;17.394;2022-09-13T12:32:45;21.40;53.70
43561;DHT22;32305;46.410;17.394;2022-09-13T12:35:35;21.40;53.90
43561;DHT22;32305;46.410;17.394;2022-09-13T12:38:29;21.50;54.10
43561;DHT22;32305;46.410;17.394;2022-09-13T12:41:22;21.50;54.10
43561;DHT22;32305;46.410;17.394;2022-09-13T12:44:21;21.50;53.90
43561;DHT22;32305;46.410;17.394;2022-09-13T12:50:37;21.60;53.60
43561;DHT22;32305;46.410;17.394;2022-09-13T12:53:40;21.60;53.40
43561;DHT22;32305;46.410;17.394;2022-09-13T12:56:38;21.70;53.50
43561;DHT22;32305;46.410;17.394;2022-09-13T12:59:31;21.70;53.60
43561;DHT22;32305;46.410;17.394;2022-09-13T13:02:30;21.70;53.50
43561;DHT22;32305;46.410;17.394;2022-09-13T13:05:04;21.70;53.40
43561;DHT22;32305;46.410;17.394;2022-09-13T13:07:34;21.70;53.50
43561;DHT22;32305;46.410;17.394;2022-09-13T13:10:05;21.70;54.20
43561;DHT22;32305;46.410;17.394;2022-09-13T13:12:38;21.70;54.40
43561;DHT22;32305;46.410;17.394;2022-09-13T13:18:44;21.70;54.80
43561;DHT22;32305;46.410;17.394;2022-09-13T13:21:36;21.70;55.10
43561;DHT22;32305;46.410;17.394;2022-09-13T13:24:37;21.70;55.70
43561;DHT22;32305;46.410;17.394;2022-09-13T13:27:35;21.70;55.40
43561;DHT22;32305;46.410;17.394;2022-09-13T13:30:49;21.70;55.20
43561;DHT22;32305;46.410;17.394;2022-09-13T13:33:23;21.70;55.30
43561;DHT22;32305;46.410;17.394;2022-09-13T13:35:51;21.70;55.40
43561;DHT22;32305;46.410;17.394;2022-09-13T13:38:44;21.70;55.50
43561;DHT22;32305;46.410;17.394;2022-09-13T13:41:36;21.70;55.50
43561;DHT22;32305;46.410;17.394;2022-09-13T13:47:41;21.70;55.40
43561;DHT22;32305;46.410;17.394;2022-09-13T13:50:15;21.70;55.60
43561;DHT22;32305;46.410;17.394;2022-09-13T13:52:53;21.70;55.90
43561;DHT22;32305;46.410;17.394;2022-09-13T13:55:39;21.70;56.00
43561;DHT22;32305;46.410;17.394;2022-09-13T13:58:32;21.70;55.60
43561;DHT22;32305;46.410;17.394;2022-09-13T14:01:03;21.70;55.50
43561;DHT22;32305;46.410;17.394;2022-09-13T14:04:10;21.80;55.30
43561;DHT22;32305;46.410;17.394;2022-09-13T14:06:50;21.80;55.10
43561;DHT22;32305;46.410;17.394;2022-09-13T14:09:50;21.80;55.00
43561;DHT22;32305;46.410;17.394;2022-09-13T14:12:31;21.80;54.90
43561;DHT22;32305;46.410;17.394;2022-09-13T14:15:14;21.80;55.00
43561;DHT22;32305;46.410;17.394;2022-09-13T14:20:58;21.70;55.10
43561;DHT22;32305;46.410;17.394;2022-09-13T14:23:26;21.70;55.00
43561;DHT22;32305;46.410;17.394;2022-09-13T14:25:58;21.80;54.80
43561;DHT22;32305;46.410;17.394;2022-09-13T14:28:28;21.80;55.00
43561;DHT22;32305;46.410;17.394;2022-09-13T14:30:57;21.80;55.10
43561;DHT22;32305;46.410;17.394;2022-09-13T14:33:35;21.80;55.10
43561;DHT22;32305;46.410;17.394;2022-09-13T14:36:07;21.70;55.20
43561;DHT22;32305;46.410;17.394;2022-09-13T14:38:35;21.60;55.30
43561;DHT22;32305;46.410;17.394;2022-09-13T14:41:15;21.60;55.90
43561;DHT22;32305;46.410;17.394;2022-09-13T14:43:43;21.60;56.30
43561;DHT22;32305;46.410;17.394;2022-09-13T14:46:26;21.60;56.10
43561;DHT22;32305;46.410;17.394;2022-09-13T14:48:57;21.50;56.10
43561;DHT22;32305;46.410;17.394;2022-09-13T14:51:45;21.50;55.70
43561;DHT22;32305;46.410;17.394;2022-09-13T14:54:24;21.60;55.50
43561;DHT22;32305;46.410;17.394;2022-09-13T14:56:57;21.60;55.40
43561;DHT22;32305;46.410;17.394;2022-09-13T14:59:31;21.60;56.00
43561;DHT22;32305;46.410;17.394;2022-09-13T15:02:20;21.70;56.40
43561;DHT22;32305;46.410;17.394;2022-09-13T15:04:54;21.70;56.70
43561;DHT22;32305;46.410;17.394;2022-09-13T15:07:32;21.70;57.00
43561;DHT22;32305;46.410;17.394;2022-09-13T15:10:25;21.80;57.30
43561;DHT22;32305;46.410;17.394;2022-09-13T15:13:08;21.90;57.60
43561;DHT22;32305;46.410;17.394;2022-09-13T15:15:38;21.90;57.70
43561;DHT22;32305;46.410;17.394;2022-09-13T15:18:28;22.00;57.80
43561;DHT22;32305;46.410;17.394;2022-09-13T15:21:14;22.10;58.00
43561;DHT22;32305;46.410;17.394;2022-09-13T15:23:49;22.20;58.10
43561;DHT22;32305;46.410;17.394;2022-09-13T15:26:24;22.30;58.30
43561;DHT22;32305;46.410;17.394;2022-09-13T15:28:57;22.40;58.40
43561;DHT22;32305;46.410;17.394;2022-09-13T15:31:34;22.40;58.70
43561;DHT22;32305;46.410;17.394;2022-09-13T15:34:22;22.50;58.90
43561;DHT22;32305;46.410;17.394;2022-09-13T15:37:09;22.60;59.00
43561;DHT22;32305;46.410;17.394;2022-09-13T15:39:48;22.70;59.20
43561;DHT22;32305;46.410;17.394;2022-09-13T15:42:16;22.70;59.10
43561;DHT22;32305;46.410;17.394;2022-09-13T15:44:43;22.80;59.20
43561;DHT22;32305;46.410;17.394;2022-09-13T15:47:15;22.90;59.20
43561;DHT22;32305;46.410;17.394;2022-09-13T15:49:48;22.90;59.70
43561;DHT22;32305;46.410;17.394;2022-09-13T15:52:18;23.00;58.90
43561;DHT22;32305;46.410;17.394;2022-09-13T15:54:47;23.10;58.70
43561;DHT22;32305;46.410;17.394;2022-09-13T15:57:27;23.10;58.40
43561;DHT22;32305;46.410;17.394;2022-09-13T15:59:55;23.20;58.00
43561;DHT22;32305;46.410;17.394;2022-09-13T16:02:33;23.30;57.60
43561;DHT22;32305;46.410;17.394;2022-09-13T16:05:01;23.40;56.90
43561;DHT22;32305;46.410;17.394;2022-09-13T16:07:28;23.40;56.30
43561;DHT22;32305;46.410;17.394;2022-09-13T16:09:58;23.50;55.70
43561;DHT22;32305;46.410;17.394;2022-09-13T16:12:25;23.60;55.10
43561;DHT22;32305;46.410;17.394;2022-09-13T16:14:53;23.70;54.50
43561;DHT22;32305;46.410;17.394;2022-09-13T16:17:25;23.90;54.10
43561;DHT22;32305;46.410;17.394;2022-09-13T16:19:53;24.00;53.50
43561;DHT22;32305;46.410;17.394;2022-09-13T16:22:20;24.10;52.90
43561;DHT22;32305;46.410;17.394;2022-09-13T16:24:48;24.30;52.50
43561;DHT22;32305;46.410;17.394;2022-09-13T16:27:16;24.40;52.00
43561;DHT22;32305;46.410;17.394;2022-09-13T16:29:45;24.50;51.70
43561;DHT22;32305;46.410;17.394;2022-09-13T16:32:12;24.60;51.30
43561;DHT22;32305;46.410;17.394;2022-09-13T16:34:39;24.70;51.10
43561;DHT22;32305;46.410;17.394;2022-09-13T16:37:06;24.80;50.90
43561;DHT22;32305;46.410;17.394;2022-09-13T16:39:33;24.80;50.70
43561;DHT22;32305;46.410;17.394;2022-09-13T16:42:00;24.90;50.50
43561;DHT22;32305;46.410;17.394;2022-09-13T16:44:27;24.90;50.40
43561;DHT22;32305;46.410;17.394;2022-09-13T16:46:54;25.00;50.30
43561;DHT22;32305;46.410;17.394;2022-09-13T16:49:23;25.00;50.20
43561;DHT22;32305;46.410;17.394;2022-09-13T16:51:50;25.10;50.20
43561;DHT22;32305;46.410;17.394;2022-09-13T16:54:17;25.10;50.10
43561;DHT22;32305;46.410;17.394;2022-09-13T16:56:44;25.10;50.10
43561;DHT22;32305;46.410;17.394;2022-09-13T16:59:11;25.10;50.00
43561;DHT22;32305;46.410;17.394;2022-09-13T17:01:39;25.20;50.10
43561;DHT22;32305;46.410;17.394;2022-09-13T17:04:06;25.20;50.00
43561;DHT22;32305;46.410;17.394;2022-09-13T17:06:33;25.20;50.00
43561;DHT22;32305;46.410;17.394;2022-09-13T17:09:02;25.20;50.00
43561;DHT22;32305;46.410;17.394;2022-09-13T17:11:33;25.20;50.00
43561;DHT22;32305;46.410;17.394;2022-09-13T17:14:02;25.20;50.10
43561;DHT22;32305;46.410;17.394;2022-09-13T17:16:36;25.30;50.20
43561;DHT22;32305;46.410;17.394;2022-09-13T17:19:07;25.30;50.20
43561;DHT22;32305;46.410;17.394;2022-09-13T17:21:34;25.20;50.20
43561;DHT22;32305;46.410;17.394;2022-09-13T17:24:02;25.30;50.30
43561;DHT22;32305;46.410;17.394;2022-09-13T17:26:29;25.30;50.40
43561;DHT22;32305;46.410;17.394;2022-09-13T17:28:57;25.20;50.30
43561;DHT22;32305;46.410;17.394;2022-09-13T17:31:24;25.30;50.40
43561;DHT22;32305;46.410;17.394;2022-09-13T17:33:52;25.30;50.50
43561;DHT22;32305;46.410;17.394;2022-09-13T17:36:19;25.30;50.50
43561;DHT22;32305;46.410;17.394;2022-09-13T17:38:46;25.30;50.50
43561;DHT22;32305;46.410;17.394;2022-09-13T17:41:16;25.30;50.50
43561;DHT22;32305;46.410;17.394;2022-09-13T17:43:45;25.30;50.40
43561;DHT22;32305;46.410;17.394;2022-09-13T17:46:16;25.30;50.40
43561;DHT22;32305;46.410;17.394;2022-09-13T17:48:43;25.20;50.30
43561;DHT22;32305;46.410;17.394;2022-09-13T17:51:13;25.20;50.20
43561;DHT22;32305;46.410;17.394;2022-09-13T17:53:45;25.20;50.20
43561;DHT22;32305;46.410;17.394;2022-09-13T17:56:23;25.30;50.20
43561;DHT22;32305;46.410;17.394;2022-09-13T17:58:56;25.20;50.10
43561;DHT22;32305;46.410;17.394;2022-09-13T18:01:37;25.20;50.10
43561;DHT22;32305;46.410;17.394;2022-09-13T18:04:08;25.20;50.00